createdAt,value
2023-02-24T00:02:20.003Z,56.60
2023-02-24T00:04:51.644Z,53.65
2023-02-24T00:07:18.543Z,56.40
2023-02-24T00:09:44.941Z,54.50
2023-02-24T00:12:13.266Z,54.53
2023-02-24T00:14:41.092Z,56.13
2023-02-24T00:17:10.528Z,56.15
2023-02-24T00:19:37.318Z,58.30
2023-02-24T00:22:05.088Z,53.28
2023-02-24T00:24:31.478Z,55.63
2023-02-24T00:26:59.469Z,61.03
2023-02-24T00:29:26.770Z,59.50
2023-02-24T00:32:00.258Z,59.37
2023-02-24T00:34:27.621Z,57.40
2023-02-24T00:36:54.094Z,56.53
2023-02-24T00:39:28.576Z,54.33
2023-02-24T00:42:04.447Z,50.50
2023-02-24T00:44:34.954Z,52.15
2023-02-24T00:47:02.449Z,47.88
2023-02-24T00:49:29.174Z,45.03
2023-02-24T00:51:55.606Z,47.03
2023-02-24T00:54:24.795Z,42.88
2023-02-24T00:56:51.088Z,45.50
2023-02-24T00:59:18.682Z,43.67
2023-02-24T01:01:45.950Z,41.97
2023-02-24T01:04:13.135Z,43.40
2023-02-24T01:06:44.923Z,44.33
2023-02-24T01:09:12.296Z,39.33
2023-02-24T01:11:57.854Z,45.85
2023-02-24T01:14:26.841Z,46.90
2023-02-24T01:16:53.655Z,46.55
2023-02-24T01:19:21.495Z,51.47
2023-02-24T01:21:48.019Z,45.33
2023-02-24T01:24:16.950Z,48.00
2023-02-24T01:26:44.131Z,47.90
2023-02-24T01:29:10.452Z,51.17
2023-02-24T01:31:38.409Z,43.63
2023-02-24T01:34:06.034Z,44.27
2023-02-24T01:36:33.578Z,39.47
2023-02-24T01:39:00.584Z,43.20
2023-02-24T01:41:30.975Z,43.60
2023-02-24T01:43:59.180Z,37.97
2023-02-24T01:46:26.751Z,39.47
2023-02-24T01:48:54.990Z,40.20
2023-02-24T01:51:21.652Z,41.27
2023-02-24T01:53:49.207Z,41.17
2023-02-24T01:56:16.004Z,36.25
2023-02-24T01:58:42.676Z,40.15
2023-02-24T02:01:10.082Z,42.70
2023-02-24T02:03:37.743Z,33.30
2023-02-24T02:06:06.399Z,41.70
2023-02-24T02:08:36.408Z,35.47
2023-02-24T02:11:05.027Z,39.50
2023-02-24T02:13:35.619Z,40.13
2023-02-24T02:16:20.600Z,35.37
2023-02-24T02:18:56.130Z,40.17
2023-02-24T02:21:22.727Z,40.33
2023-02-24T02:23:58.198Z,39.23
2023-02-24T02:26:32.476Z,41.50
2023-02-24T02:28:58.752Z,38.47
2023-02-24T02:31:40.493Z,38.63
2023-02-24T02:34:22.507Z,35.08
2023-02-24T02:36:48.813Z,39.10
2023-02-24T02:39:30.395Z,33.03
2023-02-24T02:41:59.287Z,40.70
2023-02-24T02:44:32.535Z,36.60
2023-02-24T02:47:08.920Z,38.83
2023-02-24T02:49:39.820Z,37.00
2023-02-24T02:52:15.428Z,29.13
2023-02-24T02:55:00.699Z,26.80
2023-02-24T02:57:29.540Z,35.77
2023-02-24T03:00:09.610Z,32.90
2023-02-24T03:02:40.017Z,31.97
2023-02-24T03:05:10.805Z,33.13
2023-02-24T03:07:41.270Z,38.47
2023-02-24T03:10:11.380Z,32.87
2023-02-24T03:12:39.866Z,37.70
2023-02-24T03:15:08.174Z,38.17
2023-02-24T03:17:37.166Z,34.47
2023-02-24T03:20:16.856Z,26.50
2023-02-24T03:22:52.218Z,34.83
2023-02-24T03:25:33.855Z,32.13
2023-02-24T03:28:05.518Z,30.90
2023-02-24T03:30:40.673Z,38.33
2023-02-24T03:33:06.971Z,35.03
2023-02-24T03:35:37.671Z,33.17
2023-02-24T03:38:04.432Z,29.77
2023-02-24T03:40:33.864Z,32.53
2023-02-24T03:43:06.267Z,35.37
2023-02-24T03:45:35.727Z,29.47
2023-02-24T03:48:03.283Z,31.40
2023-02-24T03:50:31.886Z,30.05
2023-02-24T03:53:16.930Z,32.80
2023-02-24T03:55:58.803Z,27.67
2023-02-24T03:58:32.140Z,38.07
2023-02-24T04:01:05.645Z,35.20
2023-02-24T04:03:39.260Z,36.93
2023-02-24T04:06:26.114Z,38.20
2023-02-24T04:09:01.355Z,34.73
2023-02-24T04:11:33.131Z,32.73
2023-02-24T04:14:06.489Z,34.53
2023-02-24T04:16:36.418Z,30.35
2023-02-24T04:19:04.841Z,36.70
2023-02-24T04:21:32.107Z,32.10
2023-02-24T04:24:00.658Z,35.93
2023-02-24T04:26:27.663Z,38.07
2023-02-24T04:28:55.200Z,38.27
2023-02-24T04:31:22.507Z,34.93
2023-02-24T04:33:53.275Z,33.70
2023-02-24T04:36:20.523Z,34.43
2023-02-24T04:38:47.658Z,39.07
2023-02-24T04:41:21.022Z,36.70
2023-02-24T04:43:48.949Z,38.27
2023-02-24T04:46:15.353Z,34.47
2023-02-24T04:48:41.762Z,38.03
2023-02-24T04:51:08.124Z,38.50
2023-02-24T04:53:34.701Z,35.97
2023-02-24T04:56:08.840Z,35.10
2023-02-24T04:58:39.087Z,35.17
2023-02-24T05:01:12.523Z,35.17
2023-02-24T05:03:42.306Z,32.67
2023-02-24T05:06:14.000Z,34.97
2023-02-24T05:08:40.309Z,33.23
2023-02-24T05:11:06.945Z,37.77
2023-02-24T05:13:33.795Z,33.97
2023-02-24T05:16:04.425Z,34.63
2023-02-24T05:18:36.953Z,30.67
2023-02-24T05:21:26.616Z,36.50
2023-02-24T05:23:54.580Z,31.77
2023-02-24T05:26:24.015Z,37.60
2023-02-24T05:28:52.173Z,40.83
2023-02-24T05:31:24.028Z,35.97
2023-02-24T05:33:54.628Z,30.43
2023-02-24T05:36:21.912Z,41.37
2023-02-24T05:38:48.980Z,42.17
2023-02-24T05:41:17.598Z,52.23
2023-02-24T05:43:48.354Z,40.13
2023-02-24T05:46:17.495Z,38.67
2023-02-24T05:48:44.022Z,36.10
2023-02-24T05:51:12.447Z,37.87
2023-02-24T05:53:41.349Z,38.87
2023-02-24T05:56:08.479Z,37.93
2023-02-24T05:58:36.500Z,39.03
2023-02-24T06:01:09.018Z,49.93
2023-02-24T06:03:35.653Z,44.13
2023-02-24T06:06:09.096Z,43.77
2023-02-24T06:08:42.102Z,41.13
2023-02-24T06:11:11.713Z,41.87
2023-02-24T06:13:38.581Z,45.53
2023-02-24T06:16:06.195Z,39.17
2023-02-24T06:18:32.664Z,36.90
2023-02-24T06:21:01.693Z,37.70
2023-02-24T06:23:28.383Z,42.83
2023-02-24T06:25:57.864Z,40.60
2023-02-24T06:28:25.137Z,47.23
2023-02-24T06:30:51.644Z,41.33
2023-02-24T06:33:18.480Z,43.77
2023-02-24T06:35:44.797Z,47.65
2023-02-24T06:38:11.147Z,53.27
2023-02-24T06:40:37.723Z,53.77
2023-02-24T06:43:04.066Z,51.90
2023-02-24T06:45:32.081Z,46.90
2023-02-24T06:47:58.395Z,50.43
2023-02-24T06:50:24.705Z,52.47
2023-02-24T06:52:54.951Z,50.63
2023-02-24T06:55:27.545Z,59.17
2023-02-24T06:58:04.315Z,52.57
2023-02-24T07:00:38.889Z,64.70
2023-02-24T07:03:24.838Z,58.97
2023-02-24T07:06:11.076Z,57.57
2023-02-24T07:08:38.223Z,52.00
2023-02-24T07:11:06.404Z,58.63
2023-02-24T07:13:33.041Z,57.40
2023-02-24T07:16:04.000Z,62.33
2023-02-24T07:18:30.923Z,56.63
2023-02-24T07:21:05.013Z,56.83
2023-02-24T07:23:31.848Z,61.30
2023-02-24T07:26:01.084Z,57.47
2023-02-24T07:28:27.705Z,56.43
2023-02-24T07:30:54.082Z,61.67
2023-02-24T07:33:20.405Z,62.77
2023-02-24T07:35:50.919Z,60.23
2023-02-24T07:38:22.855Z,54.80
2023-02-24T07:40:49.956Z,56.83
2023-02-24T07:43:16.660Z,58.60
2023-02-24T07:45:43.031Z,59.73
2023-02-24T07:48:12.450Z,56.30
2023-02-24T07:50:41.952Z,55.17
2023-02-24T07:53:09.991Z,53.23
2023-02-24T07:55:36.577Z,53.97
2023-02-24T07:58:02.992Z,53.83
2023-02-24T08:00:49.763Z,50.23
2023-02-24T08:03:16.301Z,44.22
2023-02-24T08:05:43.676Z,45.92
2023-02-24T08:08:10.020Z,46.23
2023-02-24T08:10:37.317Z,46.92
2023-02-24T08:13:06.703Z,44.20
2023-02-24T08:15:34.182Z,44.42
2023-02-24T08:18:01.244Z,40.17
2023-02-24T08:20:29.828Z,41.90
2023-02-24T08:22:56.417Z,38.42
2023-02-24T08:25:24.400Z,34.33
2023-02-24T08:28:07.328Z,34.40
2023-02-24T08:30:38.707Z,31.17
2023-02-24T08:33:06.732Z,31.00
2023-02-24T08:35:37.777Z,26.67
2023-02-24T08:38:18.655Z,30.02
2023-02-24T08:40:54.495Z,31.95
2023-02-24T08:43:24.981Z,34.38
2023-02-24T08:45:56.578Z,27.60
2023-02-24T08:48:36.993Z,28.30
2023-02-24T08:51:17.844Z,28.25
2023-02-24T08:53:46.576Z,26.90
2023-02-24T08:56:14.064Z,27.95
2023-02-24T08:58:47.161Z,28.13
2023-02-24T09:01:24.005Z,29.58
2023-02-24T09:03:52.881Z,25.45
2023-02-24T09:06:25.395Z,24.90
2023-02-24T09:09:14.621Z,23.23
2023-02-24T09:11:44.072Z,22.17
2023-02-24T09:14:25.833Z,21.60
2023-02-24T09:17:03.445Z,17.15
2023-02-24T09:19:46.219Z,17.42
2023-02-24T09:22:29.598Z,18.58
2023-02-24T09:25:16.277Z,16.77
2023-02-24T09:27:42.661Z,16.25
2023-02-24T09:30:25.765Z,15.38
2023-02-24T09:33:01.074Z,16.20
2023-02-24T09:35:31.154Z,16.83
2023-02-24T09:38:00.441Z,17.23
2023-02-24T09:40:48.792Z,16.50
2023-02-24T09:43:20.029Z,17.55
2023-02-24T09:46:15.034Z,13.00
2023-02-24T09:49:05.243Z,12.07
2023-02-24T09:51:42.214Z,13.93
2023-02-24T09:54:13.460Z,13.70
2023-02-24T09:56:44.867Z,12.15
2023-02-24T09:59:29.595Z,11.73
2023-02-24T10:02:02.237Z,11.00
2023-02-24T10:04:36.764Z,11.93
2023-02-24T10:07:05.512Z,11.93
2023-02-24T10:09:36.936Z,11.27
2023-02-24T10:12:17.103Z,12.90
2023-02-24T10:14:53.032Z,12.48
2023-02-24T10:17:24.356Z,11.63
2023-02-24T10:20:00.518Z,12.98
2023-02-24T10:22:30.645Z,14.02
2023-02-24T10:25:01.517Z,11.25
2023-02-24T10:27:32.818Z,11.27
2023-02-24T10:30:10.901Z,14.18
2023-02-24T10:32:53.564Z,11.40
2023-02-24T10:35:25.886Z,12.57
2023-02-24T10:37:52.856Z,12.18
2023-02-24T10:40:43.746Z,13.25
2023-02-24T10:43:10.873Z,15.20
2023-02-24T10:45:45.091Z,13.35
2023-02-24T10:48:40.794Z,13.32
2023-02-24T10:51:10.035Z,11.07
2023-02-24T10:53:37.624Z,11.57
2023-02-24T10:56:41.910Z,11.50
2023-02-24T10:59:35.184Z,11.95
2023-02-24T11:02:29.411Z,12.40
2023-02-24T11:04:56.774Z,15.20
2023-02-24T11:07:33.586Z,14.48
2023-02-24T11:10:12.079Z,13.57
2023-02-24T11:13:09.269Z,14.20
2023-02-24T11:15:55.487Z,13.15
2023-02-24T11:18:26.588Z,13.65
2023-02-24T11:20:55.513Z,12.85
2023-02-24T11:23:27.531Z,13.65
2023-02-24T11:25:58.236Z,11.75
2023-02-24T11:28:47.613Z,10.93
2023-02-24T11:31:26.597Z,15.77
2023-02-24T11:33:59.614Z,10.40
2023-02-24T11:36:34.736Z,12.75
2023-02-24T11:39:22.563Z,11.05
2023-02-24T11:41:53.078Z,11.70
2023-02-24T11:44:28.770Z,11.45
2023-02-24T11:47:02.552Z,9.93
2023-02-24T11:49:28.834Z,11.35
2023-02-24T11:51:55.603Z,10.18
2023-02-24T11:54:23.305Z,11.50
2023-02-24T11:56:54.810Z,12.23
2023-02-24T11:59:28.755Z,12.38
2023-02-24T12:02:10.660Z,11.55
2023-02-24T12:04:54.508Z,10.65
2023-02-24T12:07:20.853Z,10.23
2023-02-24T12:09:54.869Z,9.30
2023-02-24T12:12:31.742Z,9.30
2023-02-24T12:14:59.468Z,8.55
2023-02-24T12:17:25.783Z,9.90
2023-02-24T12:19:58.030Z,10.88
2023-02-24T12:22:28.675Z,8.32
2023-02-24T12:24:55.017Z,8.70
2023-02-24T12:27:31.961Z,8.55
2023-02-24T12:29:58.245Z,9.43
2023-02-24T12:32:36.461Z,9.75
2023-02-24T12:35:11.730Z,11.38
2023-02-24T12:37:38.014Z,10.68
2023-02-24T12:40:39.086Z,10.10
2023-02-24T12:43:05.358Z,12.93
2023-02-24T12:45:34.456Z,10.85
2023-02-24T12:48:03.916Z,10.25
2023-02-24T12:50:37.103Z,9.68
2023-02-24T12:53:09.131Z,9.02
2023-02-24T12:55:43.975Z,11.20
2023-02-24T12:58:14.116Z,9.63
2023-02-24T13:00:54.623Z,10.70
2023-02-24T13:03:24.053Z,11.45
2023-02-24T13:05:55.033Z,8.45
2023-02-24T13:08:24.761Z,9.18
2023-02-24T13:11:07.085Z,9.43
2023-02-24T13:13:40.252Z,9.30
2023-02-24T13:16:06.552Z,8.52
2023-02-24T13:18:34.571Z,8.63
2023-02-24T13:21:22.648Z,8.18
2023-02-24T13:23:58.378Z,9.32
2023-02-24T13:26:25.302Z,7.13
2023-02-24T13:29:02.363Z,8.00
2023-02-24T13:31:39.533Z,8.02
2023-02-24T13:34:12.819Z,8.55
2023-02-24T13:36:45.879Z,9.25
2023-02-24T13:39:31.072Z,9.35
2023-02-24T13:42:03.967Z,10.75
2023-02-24T13:44:30.382Z,9.70
2023-02-24T13:46:56.863Z,7.65
2023-02-24T13:49:23.235Z,8.60
2023-02-24T13:51:55.804Z,9.23
2023-02-24T13:54:40.588Z,8.85
2023-02-24T13:57:29.520Z,7.10
2023-02-24T13:59:57.524Z,7.63
2023-02-24T14:02:28.013Z,6.07
2023-02-24T14:04:55.495Z,5.75
2023-02-24T14:07:27.413Z,6.63
2023-02-24T14:09:57.736Z,5.82
2023-02-24T14:12:26.390Z,5.40
2023-02-24T14:14:53.408Z,5.13
2023-02-24T14:17:28.894Z,8.50
2023-02-24T14:19:56.365Z,6.30
2023-02-24T14:22:22.781Z,5.72
2023-02-24T14:24:49.147Z,5.15
2023-02-24T14:27:24.463Z,10.65
2023-02-24T14:29:51.289Z,5.93
2023-02-24T14:32:21.578Z,8.25
2023-02-24T14:34:48.113Z,6.07
2023-02-24T14:37:17.280Z,4.95
2023-02-24T14:39:52.899Z,5.47
2023-02-24T14:42:20.236Z,4.97
2023-02-24T14:44:56.917Z,5.80
2023-02-24T14:47:25.070Z,7.90
2023-02-24T14:50:02.452Z,5.18
2023-02-24T14:52:39.379Z,5.47
2023-02-24T14:55:17.827Z,9.50
2023-02-24T14:57:47.638Z,8.00
2023-02-24T15:00:17.480Z,9.40
2023-02-24T15:02:46.706Z,7.65
2023-02-24T15:05:13.260Z,7.47
2023-02-24T15:07:39.793Z,9.68
2023-02-24T15:10:06.645Z,8.27
2023-02-24T15:12:34.984Z,8.00
2023-02-24T15:15:04.579Z,10.43
2023-02-24T15:17:31.224Z,6.35
2023-02-24T15:19:57.658Z,14.25
2023-02-24T15:22:26.428Z,3.47
2023-02-24T15:24:53.478Z,6.93
2023-02-24T15:27:21.477Z,14.50
2023-02-24T15:30:02.088Z,7.88
2023-02-24T15:32:29.861Z,7.00
2023-02-24T15:34:56.326Z,6.78
2023-02-24T15:37:24.627Z,7.00
2023-02-24T15:39:52.156Z,4.97
2023-02-24T15:42:28.239Z,9.38
2023-02-24T15:44:55.816Z,4.85
2023-02-24T15:47:23.963Z,5.00
2023-02-24T15:49:50.370Z,6.53
2023-02-24T15:52:22.599Z,7.07
2023-02-24T15:54:49.480Z,7.28
2023-02-24T15:57:16.541Z,6.15
2023-02-24T15:59:43.044Z,6.30
2023-02-24T16:02:18.349Z,5.25
2023-02-24T16:04:44.968Z,5.80
2023-02-24T16:12:32.059Z,6.28
2023-02-24T16:15:02.184Z,8.65
2023-02-24T16:17:36.475Z,6.70
2023-02-24T16:20:08.449Z,5.38
2023-02-24T16:22:35.071Z,5.10
2023-02-24T16:25:01.521Z,6.57
2023-02-24T16:27:29.506Z,16.52
2023-02-24T16:29:56.656Z,18.52
2023-02-24T16:32:25.702Z,8.32
2023-02-24T16:34:53.177Z,10.05
2023-02-24T16:37:20.947Z,8.07
2023-02-24T16:39:49.312Z,7.82
2023-02-24T16:42:16.422Z,8.45
2023-02-24T16:44:42.708Z,7.55
2023-02-24T16:47:12.736Z,12.48
2023-02-24T16:49:39.626Z,12.25
2023-02-24T16:52:05.978Z,8.10
2023-02-24T16:54:32.300Z,13.52
2023-02-24T16:56:58.871Z,7.47
2023-02-24T16:59:26.503Z,11.60
2023-02-24T17:01:53.589Z,8.20
2023-02-24T17:04:20.609Z,7.38
2023-02-24T17:06:47.230Z,9.63
2023-02-24T17:09:15.637Z,7.75
2023-02-24T17:11:42.876Z,11.47
2023-02-24T17:14:19.454Z,7.87
2023-02-24T17:16:46.051Z,9.40
2023-02-24T17:19:12.585Z,8.87
2023-02-24T17:21:40.424Z,8.73
2023-02-24T17:24:06.991Z,6.63
2023-02-24T17:26:33.325Z,7.50
2023-02-24T17:28:59.632Z,10.07
2023-02-24T17:31:31.532Z,8.23
2023-02-24T17:33:57.961Z,9.00
2023-02-24T17:36:24.516Z,11.73
2023-02-24T17:38:50.854Z,11.10
2023-02-24T17:41:17.223Z,13.93
2023-02-24T17:43:43.551Z,8.43
2023-02-24T17:46:09.951Z,13.47
2023-02-24T17:48:36.385Z,10.90
2023-02-24T17:51:02.828Z,9.03
2023-02-24T17:53:29.678Z,9.90
2023-02-24T17:56:03.686Z,9.23
2023-02-24T17:58:30.032Z,12.50
2023-02-24T18:00:56.344Z,11.00
2023-02-24T18:03:22.889Z,12.53
2023-02-24T18:05:57.066Z,12.60
2023-02-24T18:08:23.388Z,14.17
2023-02-24T18:10:49.730Z,9.87
2023-02-24T18:13:16.045Z,13.10
2023-02-24T18:15:42.404Z,12.57
2023-02-24T18:18:09.449Z,21.97
2023-02-24T18:20:36.229Z,16.87
2023-02-24T18:23:02.644Z,26.17
2023-02-24T18:25:29.010Z,27.27
2023-02-24T18:27:55.352Z,43.80
2023-02-24T18:30:21.841Z,24.03
2023-02-24T18:32:49.824Z,29.73
2023-02-24T18:35:17.446Z,26.33
2023-02-24T18:37:43.924Z,26.20
2023-02-24T18:40:10.941Z,25.57
2023-02-24T18:42:37.686Z,27.80
2023-02-24T18:45:04.204Z,25.13
2023-02-24T18:47:30.506Z,29.33
2023-02-24T18:49:56.838Z,27.57
2023-02-24T18:52:23.225Z,27.17
2023-02-24T18:54:49.653Z,24.77
2023-02-24T18:57:15.937Z,25.20
2023-02-24T18:59:42.342Z,23.67
2023-02-24T19:02:09.927Z,22.67
2023-02-24T19:04:37.474Z,34.77
2023-02-24T19:07:04.212Z,24.17
2023-02-24T19:09:30.510Z,32.07
2023-02-24T19:11:56.870Z,23.97
2023-02-24T19:14:23.304Z,31.60
2023-02-24T19:16:49.657Z,29.40
2023-02-24T19:19:16.486Z,32.53
2023-02-24T19:21:45.505Z,30.77
2023-02-24T19:24:13.456Z,26.47
2023-02-24T19:26:40.088Z,31.67
2023-02-24T19:29:06.541Z,27.77
2023-02-24T19:31:33.685Z,29.20
2023-02-24T19:34:01.162Z,31.47
2023-02-24T19:36:28.158Z,27.67
2023-02-24T19:38:54.603Z,32.80
2023-02-24T19:41:23.048Z,31.53
2023-02-24T19:43:49.773Z,30.67
2023-02-24T19:46:16.884Z,30.30
2023-02-24T19:48:43.637Z,29.07
2023-02-24T19:51:11.239Z,30.37
2023-02-24T19:53:38.322Z,30.03
2023-02-24T19:56:04.869Z,30.07
2023-02-24T19:58:31.320Z,30.23
2023-02-24T20:01:04.120Z,30.57
2023-02-24T20:03:30.471Z,23.40
2023-02-24T20:05:56.758Z,32.10
2023-02-24T20:08:23.060Z,30.77
2023-02-24T20:10:57.811Z,26.60
2023-02-24T20:13:24.121Z,25.40
2023-02-24T20:15:50.545Z,30.27
2023-02-24T20:18:16.854Z,27.97
2023-02-24T20:20:43.160Z,25.30
2023-02-24T20:23:09.460Z,27.77
2023-02-24T20:25:35.937Z,30.23
2023-02-24T20:28:02.339Z,32.20
2023-02-24T20:30:28.621Z,22.30
2023-02-24T20:32:55.024Z,26.43
2023-02-24T20:35:21.664Z,24.70
2023-02-24T20:37:47.984Z,20.70
2023-02-24T20:40:14.437Z,22.43
2023-02-24T20:42:40.757Z,23.67
2023-02-24T20:45:08.020Z,16.30
2023-02-24T20:47:34.472Z,22.37
2023-02-24T20:50:00.853Z,20.00
2023-02-24T20:52:27.351Z,23.53
2023-02-24T20:54:53.837Z,19.37
2023-02-24T20:57:20.164Z,22.00
2023-02-24T21:00:01.456Z,26.00
2023-02-24T21:02:28.918Z,28.43
2023-02-24T21:04:55.378Z,21.17
2023-02-24T21:07:21.695Z,25.20
2023-02-24T21:09:48.214Z,19.07
2023-02-24T21:12:14.556Z,25.00
2023-02-24T21:14:43.404Z,21.33
2023-02-24T21:17:11.617Z,20.60
2023-02-24T21:19:38.256Z,20.80
2023-02-24T21:22:05.034Z,21.77
2023-02-24T21:24:31.511Z,17.20
2023-02-24T21:26:58.535Z,18.20
2023-02-24T21:29:28.745Z,15.80
2023-02-24T21:31:56.095Z,14.63
2023-02-24T21:34:26.263Z,15.00
2023-02-24T21:36:52.829Z,10.50
2023-02-24T21:39:20.876Z,13.87
2023-02-24T21:41:47.210Z,10.43
2023-02-24T21:44:14.888Z,13.70
2023-02-24T21:46:45.508Z,11.83
2023-02-24T21:49:14.285Z,10.30
2023-02-24T21:51:42.289Z,11.37
2023-02-24T21:54:08.754Z,15.00
2023-02-24T21:56:35.572Z,13.77
2023-02-24T21:59:03.443Z,11.57
2023-02-24T22:01:31.739Z,11.33
2023-02-24T22:03:58.899Z,12.87
2023-02-24T22:06:26.176Z,11.97
2023-02-24T22:08:52.915Z,9.70
2023-02-24T22:11:19.271Z,10.73
2023-02-24T22:13:46.219Z,8.80
2023-02-24T22:16:14.755Z,12.03
2023-02-24T22:18:41.174Z,13.43
2023-02-24T22:21:17.331Z,13.33
2023-02-24T22:23:47.613Z,13.93
2023-02-24T22:26:14.555Z,13.97
2023-02-24T22:28:43.257Z,13.17
2023-02-24T22:31:10.858Z,11.77
2023-02-24T22:33:40.698Z,11.83
2023-02-24T22:36:08.841Z,10.73
2023-02-24T22:38:36.226Z,9.17
2023-02-24T22:41:03.934Z,11.20
2023-02-24T22:43:30.804Z,11.77
2023-02-24T22:46:07.612Z,8.33
2023-02-24T22:48:35.968Z,15.53
2023-02-24T22:51:03.413Z,7.30
2023-02-24T22:53:30.328Z,8.77
2023-02-24T22:55:56.956Z,10.97
2023-02-24T22:58:24.006Z,11.00
2023-02-24T23:00:50.705Z,10.43
2023-02-24T23:03:18.366Z,11.53
2023-02-24T23:05:59.399Z,8.80
2023-02-24T23:08:26.515Z,9.20
2023-02-24T23:10:53.167Z,10.50
2023-02-24T23:13:20.845Z,9.77
2023-02-24T23:15:48.329Z,9.90
2023-02-24T23:18:15.139Z,9.87
2023-02-24T23:20:42.182Z,10.70
2023-02-24T23:23:10.543Z,7.73
2023-02-24T23:25:37.414Z,8.77
2023-02-24T23:28:03.912Z,9.73
2023-02-24T23:30:30.372Z,13.00
2023-02-24T23:32:57.323Z,10.37
2023-02-24T23:35:24.303Z,9.30
2023-02-24T23:37:50.592Z,10.17
2023-02-24T23:40:17.004Z,10.00
2023-02-24T23:42:43.992Z,8.40
2023-02-24T23:45:10.785Z,11.00
2023-02-24T23:47:37.182Z,8.90
2023-02-24T23:50:04.032Z,9.47
2023-02-24T23:52:30.321Z,11.70
2023-02-24T23:54:56.668Z,7.53
2023-02-24T23:57:22.989Z,8.63
2023-02-24T23:59:49.281Z,10.60
